x

8454049 - Quonset Point, Ri (qptr1) Weather Station

1:54 - Sun 26th Oct 2014 All times are EDT. -4 hours from GMT.

  • Wind
    7mph, 9mph gusts
  • Sea Temp 59°f
  • Air Temp 58°f
  • Sea Pressure 998.5mb
  • 8454049 - Quonset Point, Ri
  • 8454049 - Quonset Point, Ri

More Historic Weather Station data

Upgrade to MSW Pro to gain access to the past 30 days of data for over 8000 Wavebouys and Weather Stations around the globe.

Join Pro

Comparision Forecast

View Surf forecast
   
dim. 10/26 1:54 7 9 mph 998.5mb 59f 58f
1:48 8 10 mph 998.6mb 59f 58f
1:42 9 13 mph 998.6mb 59f 58f
1:36 10 13 mph 998.5mb 59f 58f
1:30 10 13 mph 998.5mb 59f 58f
1:24 11 14 mph 998.4mb 60f 59f
1:18 11 14 mph 998.4mb 60f 59f
1:12 13 17 mph 998.4mb 60f 59f
1:06 14 16 mph 998.3mb 60f 59f
1:00 15 17 mph 998.3mb 60f 60f
12:54 15 17 mph 998.3mb 60f 60f
12:48 16 20 mph 998.4mb 60f 60f
12:42 15 20 mph 998.3mb 60f 60f
12:36 16 20 mph 998.4mb 60f 60f
12:30 16 20 mph 998.4mb 60f 60f
12:24 15 20 mph 998.4mb 60f 60f
12:18 17 20 mph 998.6mb 60f 60f
12:12 16 18 mph 998.7mb 59f 60f
12:06 16 21 mph 998.7mb 59f 60f
12:00 17 20 mph 998.8mb 59f 60f
sam. 10/25 11:54 17 22 mph 998.9mb 59f 60f
11:48 17 21 mph 998.9mb 59f 60f
11:42 16 20 mph 999.1mb 59f 60f
11:36 16 18 mph 999.3mb 59f 60f
11:30 15 18 mph 999.4mb 59f 60f
11:24 15 17 mph 999.6mb 59f 59f
11:18 15 17 mph 999.7mb 59f 59f
11:12 14 16 mph 999.9mb 59f 59f
11:06 14 16 mph 1000.1mb 59f 59f
11:00 13 16 mph 1000.1mb 59f 59f
10:54 14 16 mph 1000.3mb 59f 59f
10:48 15 17 mph 1000.4mb 59f 59f
10:42 14 16 mph 1000.5mb 59f 59f
10:36 15 17 mph 1000.6mb 59f 58f
10:30 15 17 mph 1000.7mb 59f 58f
10:24 14 16 mph 1000.8mb 58f 58f
10:18 13 15 mph 1000.9mb 58f 58f
10:12 14 15 mph 1000.9mb 58f 58f
10:06 11 14 mph 1001mb 58f 58f
10:00 11 14 mph 1001mb 58f 58f
9:54 10 14 mph 1001.1mb 58f 59f
9:48 9 13 mph 1001.1mb 58f 59f
9:42 11 14 mph 1001mb 58f 59f
9:36 13 15 mph 1001mb 58f 59f
9:30 13 14 mph 1000.9mb 58f 58f
9:24 13 15 mph 1001.1mb 58f 58f
9:18 13 14 mph 1001.3mb 58f 58f
9:12 13 14 mph 1001.5mb 58f 58f
9:06 9 10 mph 1001.6mb 58f 57f
9:00 9 10 mph 1001.8mb 58f 57f
8:54 7 9 mph 1001.8mb 58f 56f
8:48 7 8 mph 1001.8mb 58f 56f
8:42 7 8 mph 1001.9mb 58f 56f
8:36 6 8 mph 1002mb 58f 56f
8:30 6 7 mph 1002mb 58f 56f
8:24 6
mph
1002.1mb 58f 56f
8:18 5 6 mph 1002.2mb 58f 56f
8:12 6 7 mph 1002.2mb 58f 56f
8:06 6
mph
1002.2mb 58f 56f
8:00 5 7 mph 1002.2mb 58f 56f
7:54 7 9 mph 1002.2mb 58f 56f
7:48 8
mph
1002.3mb 58f 56f
7:42 8
mph
1002.4mb 58f 57f
7:36 8 9 mph 1002.5mb 58f 57f
7:30 8 9 mph 1002.5mb 58f 57f
7:24 8 9 mph 1002.5mb 58f 57f
7:18 8 10 mph 1002.5mb 58f 57f
7:12 9 10 mph 1002.5mb 58f 57f
7:06 9 10 mph 1002.5mb 58f 58f
7:00 9 10 mph 1002.4mb 58f 58f
6:54 9 11 mph 1002.4mb 58f 58f
6:48 9 11 mph 1002.5mb 58f 58f
6:42 10 11 mph 1002.6mb 58f 58f
6:36 11 13 mph 1002.6mb 58f 58f
6:30 10 14 mph 1002.5mb 58f 58f
6:24 10 13 mph 1002.5mb 58f 58f
6:18 11 14 mph 1002.5mb 58f 59f
6:12 13 14 mph 1002.4mb 59f 59f
6:06 11 15 mph 1002.3mb 59f 59f
6:00 11 13 mph 1002.3mb 59f 59f
5:54 13 15 mph 1002.3mb 59f 59f
5:48 13 15 mph 1002.3mb 59f 60f
5:42 13 16 mph 1002.3mb 59f 60f
5:36 13 14 mph 1002.2mb 59f 60f
5:30 13 15 mph 1002.3mb 59f 60f
5:24 11 15 mph 1002.3mb 59f 60f
5:18 13 15 mph 1002.3mb 59f 60f
5:12 14 17 mph 1002.2mb 59f 61f
5:06 15 17 mph 1002.3mb 59f 61f
4:54 11 16 mph 1002.5mb 59f 61f
4:48 15 22 mph 1002.5mb 59f 61f
4:42 17 18 mph 1002.5mb 59f 62f
4:36 18 21 mph 1002.5mb 59f 62f
4:30 15 20 mph 1002.5mb 59f 62f
4:24 15 16 mph 1002.5mb 59f 63f
4:18 11 15 mph 1002.6mb 59f 63f
4:12 10 14 mph 1002.9mb 59f 64f
4:06 10 14 mph 1003mb 59f 64f
4:00 8 13 mph 1003mb 59f 64f
3:54 11 16 mph 1003.1mb 59f 64f
3:48 15 17 mph 1003.2mb 59f 64f
3:42 11 14 mph 1003mb 59f 64f
3:36 13 16 mph 1003.1mb 59f 64f
3:30 14 18 mph 1003.1mb 59f 64f
3:24 10 14 mph 1003.1mb 59f 64f
3:18 14 17 mph 1003.1mb 59f 64f
3:12 14 16 mph 1003.1mb 59f 64f
3:06 14 16 mph 1003.2mb 59f 63f
3:00 11 17 mph 1003.3mb 59f 64f
2:54 14 18 mph 1003.3mb 59f 64f
2:48 18 20 mph 1003.3mb 59f 63f
2:42 9 16 mph 1003.4mb 59f 65f
2:36 15 18 mph 1003.4mb 59f 64f
2:30 13 16 mph 1003.5mb 59f 64f
2:24 9 14 mph 1003.6mb 59f 64f
2:18 9 18 mph 1003.8mb 59f 65f
2:12 13 18 mph 1004mb 59f 64f
2:06 11 20 mph 1004mb 59f 65f
2:00 13 17 mph 1004.1mb 59f 64f
1:54 16 22 mph 1004.2mb 59f 64f
1:48 9 18 mph 1004.3mb 59f 64f
1:42 13 16 mph 1004.4mb 59f 63f
1:36 16 18 mph 1004.5mb 59f 63f
1:30 13 16 mph 1004.6mb 59f 62f
1:24 14 15 mph 1004.7mb 59f 62f
1:18 14 16 mph 1004.8mb 59f 62f
1:12 11 15 mph 1005mb 59f 62f
1:06 13 16 mph 1005mb 59f 62f
1:00 13 14 mph 1005.1mb 59f 62f
12:54 10 14 mph 1005.2mb 59f 62f
12:48 8 11 mph 1005.2mb 59f 62f
12:42 11 13 mph 1005.3mb 59f 62f
12:36 10 13 mph 1005.4mb 59f 62f
12:30 10 15 mph 1005.6mb 59f 62f
12:24 13 14 mph 1005.7mb 59f 61f
12:18 9 11 mph 1005.7mb 59f 61f
12:06 6 8 mph 1005.9mb 59f 62f
12:00 7 8 mph 1005.9mb 59f 62f
11:54 6 9 mph 1006.1mb 59f 62f
11:48 5 7 mph 1006.1mb 59f 62f
11:42 6 9 mph 1006.2mb 59f 61f
11:36 5 7 mph 1006.3mb 59f 61f
11:30 6 8 mph 1006.4mb 59f 60f
11:24 5 8 mph 1006.4mb 59f 60f
11:18 6 8 mph 1006.4mb 59f 60f
11:12 5 8 mph 1006.6mb 59f 60f
11:06 6 10 mph 1006.7mb 59f 60f
11:00 6 10 mph 1006.8mb 58f 59f
10:54 6 9 mph 1007mb 58f 58f
10:48 8 10 mph 1007mb 58f 58f
10:42 5 8 mph 1007.1mb 58f 58f
10:36 6 8 mph 1007.1mb 58f 58f
10:30 5 7 mph 1007.2mb 58f 57f
10:24 5 7 mph 1007.3mb 58f 57f
10:18 5 7 mph 1007.4mb 58f 56f
10:12 7 8 mph 1007.5mb 58f 56f
10:06 5 9 mph 1007.5mb 58f 56f
10:00 5 6 mph 1007.5mb 58f 56f
9:54 5
mph
1007.6mb 58f 56f
9:48 1 3 mph 1007.8mb 58f 56f
9:42  -  2 mph 1007.9mb 58f 56f
9:36 1 2 mph 1007.9mb 58f 55f
9:30 2 5 mph 1007.8mb 58f 54f
9:24 3 5 mph 1007.9mb 58f 53f
9:18 5 6 mph 1007.8mb 58f 53f
9:12 2 5 mph 1007.8mb 58f 54f
9:06 2 5 mph 1007.8mb 58f 53f
9:00 2 3 mph 1007.9mb 58f 53f
8:54 2
mph
1008mb 58f 53f
8:48 1 2 mph 1008mb 58f 53f
8:42 2
mph
1008mb 58f 53f
8:36 2 3 mph 1008.1mb 58f 51f
8:30 3 5 mph 1008.2mb 58f 50f
8:24 1 3 mph 1008.2mb 58f 50f
8:18 2 3 mph 1008.2mb 58f 50f
8:12 2 5 mph 1008.3mb 58f 50f
8:06 3 5 mph 1008.3mb 58f 49f
8:00 5 6 mph 1008.3mb 58f 48f
7:54 6 8 mph 1008.3mb 58f 48f
7:48 7 8 mph 1008.3mb 58f 47f
7:42 7 10 mph 1008.4mb 58f 47f
7:36 9 10 mph 1008.4mb 58f 47f
7:30 7 8 mph 1008.3mb 58f 48f
7:24 8 10 mph 1008.4mb 58f 48f
7:18 7 8 mph 1008.4mb 58f 48f
7:12 7 9 mph 1008.4mb 58f 48f
7:06 9 10 mph 1008.5mb 58f 47f
7:00 9 10 mph 1008.5mb 58f 48f
6:54 7 8 mph 1008.5mb 58f 48f
6:48 7 8 mph 1008.4mb 58f 48f
6:42 5 7 mph 1008.4mb 58f 49f
6:36 6 7 mph 1008.4mb 58f 49f
6:30 6 7 mph 1008.4mb 58f 48f
6:24 7 9 mph 1008.3mb 58f 48f
6:18 6 8 mph 1008.2mb 58f 49f
6:12 5 6 mph 1008.1mb 58f 49f
6:06 5 6 mph 1008.2mb 58f 48f
6:00 5
mph
1008.2mb 58f 48f
5:54 5 6 mph 1008.1mb 58f 48f
5:48 5 7 mph 1008.1mb 58f 47f
5:42 5 6 mph 1008.1mb 58f 47f
5:36 6 8 mph 1008.1mb 58f 47f
5:30 6 9 mph 1008mb 58f 48f
5:24 5 6 mph 1007.9mb 58f 48f
5:18 5 7 mph 1007.9mb 58f 48f
5:12 5 8 mph 1007.9mb 58f 48f
5:06 5 7 mph 1007.8mb 58f 48f
5:00 5 7 mph 1007.8mb 58f 48f
4:54 5 8 mph 1007.9mb 58f 48f
4:48 5 8 mph 1007.9mb 58f 48f
4:42 5 8 mph 1007.9mb 58f 48f
4:36 5 7 mph 1007.9mb 58f 48f
4:30 5 7 mph 1007.9mb 58f 48f
4:24 3 7 mph 1007.9mb 58f 48f
4:18 5 7 mph 1007.9mb 58f 48f
4:12 6
mph
1007.8mb 58f 48f
4:06 5 7 mph 1007.7mb 58f 48f
4:00 5 7 mph 1007.6mb 58f 48f
3:54 6 7 mph 1007.7mb 58f 48f
3:48 5 7 mph 1007.7mb 58f 49f
3:42 6 8 mph 1007.7mb 58f 49f
3:36 6 7 mph 1007.6mb 58f 49f
3:30 5 7 mph 1007.6mb 58f 49f
3:24 5 8 mph 1007.5mb 58f 49f
3:18 6 9 mph 1007.4mb 58f 49f
3:12 7 11 mph 1007.5mb 58f 49f
3:00 7 10 mph 1007.4mb 58f 49f
2:54 6 9 mph 1007.4mb 58f 49f
2:48 6 9 mph 1007.5mb 58f 49f
2:42 6 9 mph 1007.5mb 58f 49f
2:36 6 7 mph 1007.5mb 58f 49f
2:24 5 7 mph 1007.5mb 59f 49f
2:18 5 6 mph 1007.4mb 59f 49f
2:12 5 7 mph 1007.4mb 59f 50f
2:06 5 6 mph 1007.5mb 59f 50f
2:00 5 7 mph 1007.4mb 59f 50f
1:54 6 7 mph 1007.4mb 59f 50f
1:48 3 6 mph 1007.4mb 59f 50f
1:42 3 6 mph 1007.4mb 59f 50f
1:36 5 7 mph 1007.3mb 59f 51f
1:30 3 6 mph 1007.3mb 59f 51f
1:24 3 7 mph 1007.3mb 59f 51f
1:18 5 8 mph 1007.3mb 59f 51f
1:12 5 9 mph 1007.2mb 59f 51f
1:06 5 8 mph 1007.3mb 59f 51f
1:00 6 8 mph 1007.3mb 59f 51f
12:54 6 8 mph 1007.4mb 59f 52f
12:48 6 8 mph 1007.4mb 59f 51f
12:42 6 8 mph 1007.4mb 59f 52f
12:36 6 8 mph 1007.5mb 59f 52f
12:30 6 9 mph 1007.5mb 59f 52f
12:24 7 11 mph 1007.4mb 59f 51f
12:12 7 9 mph 1007.4mb 59f 52f
12:06 7 10 mph 1007.4mb 59f 52f
12:00 6 9 mph 1007.4mb 59f 52f
ven. 10/24 11:54 8 10 mph 1007.4mb 59f 52f
11:48 7 10 mph 1007.4mb 59f 52f
11:42 7 13 mph 1007.3mb 59f 52f
11:36 8 10 mph 1007.2mb 59f 52f
11:30 6 11 mph 1007.2mb 59f 52f
11:24 8 15 mph 1007.2mb 59f 52f
11:18 7 11 mph 1007.2mb - 52f
11:12 6 10 mph 1007.2mb - 52f
11:06 7 9 mph 1007.1mb - 52f
11:00 7 9 mph 1007.1mb 58f 52f
10:54 7 13 mph 1007mb 58f 52f
10:48 8 10 mph 1007mb 58f 52f
10:42 6 13 mph 1007mb 58f 52f
10:36 9 13 mph 1007mb 58f 52f
10:30 8 13 mph 1007mb 58f 52f
10:24 7 13 mph 1006.9mb 58f 52f
10:18 8 11 mph 1006.9mb 58f 52f
10:12 6 11 mph 1006.8mb 58f 52f
10:06 8 11 mph 1006.8mb 58f 52f
10:00 8 11 mph 1006.8mb 58f 52f
9:54 8 13 mph 1006.8mb 58f 52f
9:48 7 11 mph 1006.9mb 58f 52f
9:42 9 17 mph 1006.8mb 58f 52f
9:36 10 14 mph 1006.8mb 58f 52f
9:30 8 10 mph 1006.7mb 58f 52f
9:24 9 11 mph 1006.8mb 58f 52f
9:18 8 11 mph 1006.9mb 58f 52f
9:12 8 11 mph 1006.8mb 58f 52f
9:06 8 13 mph 1006.8mb 58f 52f
9:00 11 15 mph 1006.9mb 58f 52f
8:54 7 11 mph 1007mb 58f 52f
8:48 9 13 mph 1006.9mb 58f 52f
8:42 8 13 mph 1006.9mb 58f 52f
8:36 7 11 mph 1006.9mb 58f 52f
8:30 9 15 mph 1006.9mb 58f 52f
8:24 10 15 mph 1006.9mb 58f 52f
8:18 9 14 mph 1006.9mb 58f 52f
8:12 8 14 mph 1006.9mb 58f 53f
8:06 10 15 mph 1006.8mb 58f 53f
8:00 7 11 mph 1006.8mb 58f 53f
7:54 7 14 mph 1006.8mb 58f 53f
7:48 8 10 mph 1006.7mb 58f 53f
7:42 6 10 mph 1006.7mb 58f 53f
7:36 7 9 mph 1006.7mb 58f 53f
7:30 7 8 mph 1006.7mb 58f 53f
7:24 7 9 mph 1006.8mb 58f 53f
7:18 6 9 mph 1006.7mb 58f 53f
7:12 8 11 mph 1006.7mb 58f 53f
7:06 11 16 mph 1006.7mb 58f 53f
7:00 6 8 mph 1006.7mb 58f 53f
6:54 5 7 mph 1006.6mb 58f 53f
6:48 5 8 mph 1006.5mb 58f 54f
6:42 6 9 mph 1006.5mb 58f 54f
6:36 6 8 mph 1006.4mb 58f 53f
6:30 5 7 mph 1006.4mb 58f 54f
6:24 3 7 mph 1006.3mb 58f 53f
6:18 6 9 mph 1006.3mb 58f 53f
6:12 3 9 mph 1006.3mb 58f 53f
6:06 6 7 mph 1006.3mb 58f 53f
6:00 5 7 mph 1006.2mb 58f 53f
5:54 5 7 mph 1006.1mb 58f 53f
5:48 5 6 mph 1006mb 58f 53f
5:42 6 7 mph 1006mb 58f 53f
5:36 6 7 mph 1006.1mb 58f 53f
5:30 6 8 mph 1006.1mb 58f 53f
5:24 7 9 mph 1006mb 59f 53f
5:18 6 10 mph 1006mb 59f 53f
5:12 8 10 mph 1005.9mb 59f 53f
5:06 8 9 mph 1006mb 59f 53f
5:00 6 10 mph 1005.9mb 59f 53f
4:54 7 10 mph 1005.9mb 59f 53f
4:48 9 13 mph 1005.9mb 59f 54f
4:42 8 13 mph 1005.9mb 59f 54f
4:36 8 13 mph 1005.8mb 59f 53f
4:30 9 14 mph 1005.7mb 59f 53f
4:24 8 11 mph 1005.7mb 59f 54f
4:18 9 13 mph 1005.6mb 59f 54f
4:12 9 14 mph 1005.5mb 59f 54f
4:06 7 10 mph 1005.5mb 59f 54f
4:00 8 11 mph 1005.5mb 59f 54f
3:54 8 11 mph 1005.4mb 59f 54f
3:48 9 13 mph 1005.3mb 59f 54f
3:42 9 14 mph 1005.3mb 59f 54f
3:36 8 13 mph 1005.2mb 59f 54f
3:30 9 16 mph 1005.2mb 59f 54f
3:24 9 13 mph 1005.2mb 59f 54f
3:18 10 15 mph 1005.2mb 59f 54f
3:12 10 14 mph 1005.2mb 59f 54f
3:06 9 15 mph 1005.1mb 59f 54f
3:00 9 14 mph 1004.9mb 59f 55f
2:54 13 17 mph 1004.9mb 59f 54f
2:48 10 15 mph 1005mb 59f 54f
2:42 9 14 mph 1005mb 59f 54f
2:36 9 14 mph 1005mb 59f 54f
2:30 9 13 mph 1004.9mb 59f 55f
2:24 9 13 mph 1004.8mb 59f 54f
2:18 10 14 mph 1004.7mb 59f 54f
2:12 9 13 mph 1004.8mb 59f 54f
2:06 13 15 mph 1004.8mb 59f 54f
2:00 10 16 mph 1004.8mb 59f 54f
1:54 8 11 mph 1004.8mb 59f 54f
1:48 9 14 mph 1004.8mb 59f 54f
1:42 9 15 mph 1004.8mb 59f 54f
1:36 10 14 mph 1004.9mb 59f 54f
1:30 13 15 mph 1004.8mb 59f 54f
1:24 10 14 mph 1004.8mb 59f 54f
1:18 10 15 mph 1004.8mb 59f 54f
1:12 9 15 mph 1004.8mb 59f 54f
1:06 11 15 mph 1004.8mb 59f 54f
1:00 9 16 mph 1004.9mb 59f 54f
12:54 11 15 mph 1004.9mb 59f 54f
12:48 11 15 mph 1004.9mb 59f 54f
12:42 10 15 mph 1005mb 59f 54f
12:36 11 16 mph 1005.1mb 59f 54f
12:30 13 17 mph 1005.2mb 59f 53f
12:24 11 18 mph 1005.2mb 59f 53f
12:18 11 16 mph 1005.4mb 59f 53f
12:12 10 14 mph 1005.4mb 59f 53f
12:06 9 14 mph 1005.5mb 59f 53f
12:00 11 17 mph 1005.5mb 59f 53f
11:48 9 17 mph 1005.6mb 59f 53f
11:42 13 16 mph 1005.7mb 59f 53f
11:36 13 18 mph 1005.7mb 59f 53f
11:30 11 14 mph 1005.6mb 59f 53f
11:24 14 16 mph 1005.6mb 59f 53f
11:18 11 15 mph 1005.5mb 59f 53f
11:12 9 14 mph 1005.5mb 59f 53f
11:06 10 17 mph 1005.5mb 59f 53f
11:00 11 14 mph 1005.5mb 59f 53f
10:54 11 16 mph 1005.5mb 59f 53f
10:48 10 14 mph 1005.6mb 59f 53f
10:42 9 13 mph 1005.5mb 59f 53f
10:36 9 16 mph 1005.5mb 59f 53f
10:30 9 14 mph 1005.6mb 59f 53f
10:24 9 15 mph 1005.6mb 59f 53f
10:18 9 14 mph 1005.6mb 59f 53f
10:12 10 15 mph 1005.6mb 59f 53f
10:06 8 16 mph 1005.6mb 59f 53f
10:00 9 14 mph 1005.5mb 59f 52f
9:54 11 16 mph 1005.4mb 59f 52f
9:48 9 15 mph 1005.5mb 59f 52f
9:42 8 13 mph 1005.5mb 59f 52f
9:36 10 14 mph 1005.5mb 59f 52f
9:30 9 14 mph 1005.5mb 59f 52f
9:24 8 11 mph 1005.5mb 59f 52f
9:18 7 10 mph 1005.5mb 59f 52f
9:12 8 10 mph 1005.5mb 59f 52f
9:06 7 11 mph 1005.5mb 59f 52f
9:00 8 11 mph 1005.5mb 59f 52f
8:54 7 11 mph 1005.5mb 59f 52f
8:48 8 11 mph 1005.5mb 59f 52f
8:42 8 11 mph 1005.5mb 59f 52f
8:36 7 11 mph 1005.6mb 59f 52f
8:30 8 13 mph 1005.5mb 59f 52f
8:24 8 14 mph 1005.4mb 59f 52f
8:18 7 11 mph 1005.3mb 59f 52f
8:12 7 11 mph 1005.2mb 59f 52f
8:06 8 10 mph 1005.2mb 59f 51f
8:00 6 11 mph 1005.2mb 59f 51f
7:54 7 13 mph 1005.2mb 59f 51f
7:48 8 14 mph 1005.1mb 59f 51f
7:42 8 11 mph 1005.1mb 59f 51f
7:36 9 13 mph 1005.1mb 59f 51f
7:30 9 13 mph 1005mb 59f 51f
7:24 8 13 mph 1005mb 58f 52f
7:12 8 10 mph 1005mb 58f 52f
7:06 8 14 mph 1004.9mb 58f 52f
7:00 11 15 mph 1004.8mb 58f 52f
6:54 13 16 mph 1004.7mb 58f 52f
6:48 15 21 mph 1004.6mb 58f 52f
6:42 11 17 mph 1004.6mb 58f 52f
6:36 10 16 mph 1004.6mb 58f 52f
6:30 10 14 mph 1004.6mb 58f 52f
6:24 14 17 mph 1004.5mb 58f 52f
6:18 14 21 mph 1004.4mb 59f 52f
6:12 14 18 mph 1004.3mb 59f 52f
6:06 13 16 mph 1004.3mb 59f 52f
6:00 10 17 mph 1004.3mb 59f 52f
5:54 9 17 mph 1004.2mb 59f 52f
5:48 11 18 mph 1004.2mb 59f 52f
5:42 13 16 mph 1004.2mb 59f 52f
5:36 10 17 mph 1004.1mb 59f 52f
5:30 13 17 mph 1004.1mb 59f 52f
5:24 16 20 mph 1004mb 59f 52f
5:18 14 23 mph 1003.9mb 59f 52f
5:12 14 16 mph 1003.8mb 59f 52f
5:06 14 17 mph 1003.8mb 59f 52f
5:00 15 18 mph 1003.7mb 59f 52f
4:54 16 21 mph 1003.7mb 59f 52f
4:48 15 20 mph 1003.6mb 59f 52f
4:42 15 18 mph 1003.7mb 59f 52f
4:36 14 18 mph 1003.7mb 59f 52f
4:30 14 17 mph 1003.7mb 59f 52f
4:24 13 20 mph 1003.6mb 59f 52f
4:18 13 18 mph 1003.5mb 59f 52f
4:12 15 20 mph 1003.4mb 59f 51f
4:06 14 20 mph 1003.3mb 59f 51f
4:00 15 18 mph 1003.3mb 59f 51f
3:54 13 17 mph 1003.3mb 59f 51f
3:48 15 18 mph 1003.3mb 59f 51f
3:42 13 18 mph 1003.2mb 59f 51f
3:36 15 21 mph 1003.3mb 59f 51f
3:30 13 16 mph 1003.3mb 59f 51f
3:24 13 20 mph 1003.3mb 59f 51f
3:18 15 21 mph 1003.4mb 59f 52f
3:12 15 20 mph 1003.4mb 59f 52f
3:06 14 23 mph 1003.4mb 59f 52f
3:00 15 18 mph 1003.3mb 59f 52f
2:54 14 22 mph 1003.4mb 59f 52f
2:48 15 18 mph 1003.4mb 59f 51f
2:42 15 21 mph 1003.4mb 59f 52f
2:36 17 24 mph 1003.3mb 59f 52f
2:30 14 22 mph 1003.3mb 59f 51f
2:24 14 20 mph 1003.3mb 59f 51f
2:18 14 21 mph 1003.3mb 59f 51f
2:12 16 21 mph 1003.2mb 59f 51f
2:06 16 25 mph 1003.1mb 59f 51f
2:00 16 24 mph 1003.1mb 59f 52f
1:54 15 22 mph 1003.3mb 59f 52f
1:48 15 22 mph 1003.2mb 59f 52f
1:42 15 21 mph 1003.2mb 59f 52f
1:36 16 23 mph 1003.2mb 59f 52f
1:30 14 24 mph 1003.2mb 59f 52f
1:24 15 26 mph 1003.2mb 59f 52f
1:18 18 25 mph 1003.2mb 59f 52f
1:12 18 24 mph 1003.2mb 59f 52f
1:06 17 25 mph 1003.2mb 59f 52f
1:00 20 23 mph 1003mb 59f 52f
12:54 17 24 mph 1003mb 59f 52f
12:48 18 23 mph 1002.8mb 59f 52f
12:42 20 25 mph 1002.8mb 59f 52f
12:36 18 29 mph 1002.8mb 59f 52f
12:30 18 24 mph 1002.7mb 59f 52f
12:24 18 24 mph 1002.7mb 59f 52f
12:18 18 24 mph 1002.7mb 59f 52f
12:12 20 26 mph 1002.7mb 59f 52f
12:06 20 26 mph 1002.6mb 59f 52f
12:00 20 24 mph 1002.7mb 59f 53f
jeu. 10/23 11:54 17 24 mph 1002.8mb 59f 53f
11:48 20 26 mph 1002.7mb 59f 53f
11:42 18 28 mph 1002.7mb 59f 53f
11:36 18 24 mph 1002.7mb 59f 53f
11:30 20 24 mph 1002.7mb 59f 53f
11:24 18 21 mph 1002.7mb 59f 53f
11:18 16 24 mph 1002.8mb 59f 53f
11:12 17 25 mph 1002.7mb 59f 53f
11:06 21 26 mph 1002.6mb 59f 53f
11:00 17 26 mph 1002.7mb 59f 53f
10:54 20 25 mph 1002.7mb 59f 53f
10:48 17 24 mph 1002.7mb 59f 53f
10:42 22 30 mph 1002.6mb 59f 53f
10:36 22 25 mph 1002.7mb 59f 53f
10:30 22 26 mph 1002.8mb 59f 53f
10:24 17 25 mph 1002.8mb 59f 53f
10:18 18 24 mph 1002.7mb 59f 53f
10:12 21 25 mph 1002.7mb 59f 53f
10:06 22 26 mph 1002.7mb 59f 53f
10:00 21 23 mph 1002.7mb 59f 53f
9:54 22 25 mph 1002.8mb 59f 53f
9:48 17 26 mph 1002.8mb 59f 53f
9:42 17 25 mph 1002.9mb 59f 53f
9:36 21 25 mph 1002.8mb 59f 53f
9:30 18 23 mph 1002.7mb 59f 53f
9:24 20 25 mph 1002.6mb 59f 53f
9:12 21 26 mph 1002.4mb 59f 53f
9:06 22 28 mph 1002.3mb 59f 53f
9:00 20 26 mph 1002.3mb 59f 53f
8:54 18 25 mph 1002.4mb 59f 54f
8:48 21 31 mph 1002.3mb 59f 54f
8:42 23 28 mph 1002.3mb 59f 54f
8:36 25 29 mph 1002.3mb 59f 54f
8:30 21 29 mph 1002.3mb 59f 54f
8:24 24 31 mph 1002.1mb 59f 54f
8:18 21 30 mph 1002.1mb 59f 54f
8:12 22 29 mph 1002mb 59f 54f
8:00 23 30 mph 1001.9mb 59f 54f
7:48 24 30 mph 1002mb 59f 54f
7:42 21 28 mph 1001.9mb 59f 54f
7:36 22 31 mph 1001.9mb 59f 54f
7:30 21 29 mph 1001.8mb 59f 54f
7:24 22 29 mph 1001.7mb 59f 54f
7:18 23 31 mph 1001.7mb 59f 55f
7:12 22 29 mph 1001.6mb 59f 55f
7:06 24 30 mph 1001.4mb 59f 55f
7:00 24 34 mph 1001.3mb 59f 55f
6:54 23 30 mph 1001.2mb 59f 55f
6:48 22 28 mph 1001.1mb 59f 55f
6:42 22 29 mph 1001mb 59f 55f
6:36 23 29 mph 1000.9mb 59f 55f
6:30 23 29 mph 1000.9mb 59f 55f
6:24 23 29 mph 1000.8mb 59f 55f
6:18 20 29 mph 1000.6mb 59f 55f
6:12 23 28 mph 1000.5mb 59f 55f
6:06 22 31 mph 1000.5mb 59f 55f
6:00 21 26 mph 1000.5mb 59f 55f
5:54 20 28 mph 1000.3mb 59f 55f
5:48 22 26 mph 1000.3mb 59f 55f
5:42 18 26 mph 1000.4mb 59f 55f
5:36 20 26 mph 1000.4mb 59f 55f
5:30 18 26 mph 1000.4mb 59f 55f
5:24 22 29 mph 1000.3mb 59f 55f
5:18 23 28 mph 1000.2mb 59f 55f
5:12 23 29 mph 1000.1mb 59f 55f
5:06 21 25 mph 1000.1mb 59f 55f
5:00 21 26 mph 1000.1mb 59f 56f
4:54 20 26 mph 999.9mb 59f 56f
4:48 21 30 mph 999.9mb 59f 56f
4:42 21 26 mph 999.7mb 59f 56f
4:36 21 29 mph 999.7mb 59f 56f
4:24 21 30 mph 999.7mb 59f 57f
4:18 22 29 mph 999.6mb 59f 57f
4:12 20 32 mph 999.6mb 59f 57f
4:06 22 29 mph 999.5mb 59f 57f
4:00 21 28 mph 999.6mb 59f 57f
3:48 22 32 mph 999.6mb 59f 57f
3:42 23 29 mph 999.5mb 59f 57f
3:36 22 29 mph 999.6mb 59f 57f
3:30 22 30 mph 999.5mb 59f 57f
3:24 23 29 mph 999.5mb 59f 57f
3:18 21 28 mph 999.7mb 59f 57f
3:12 20 24 mph 999.7mb 59f 57f
3:06 21 26 mph 999.8mb 59f 57f
3:00 21 28 mph 999.9mb 59f 57f
2:54 21 26 mph 999.9mb 59f 57f
2:48 23 29 mph 999.9mb 59f 57f
2:42 23 30 mph 999.7mb 59f 57f
2:36 20 28 mph 999.8mb 59f 57f
2:30 21 29 mph 999.8mb 59f 57f
2:24 22 29 mph 999.8mb 59f 57f
2:18 22 30 mph 999.9mb 59f 57f
2:12 26 30 mph 999.8mb 59f 57f
2:06 22 31 mph 999.9mb 59f 57f
2:00 20 24 mph 999.9mb 59f 56f
1:54 18 28 mph 1000mb 59f 56f
1:48 20 24 mph 1000mb 59f 56f
1:42 18 26 mph 1000.1mb 59f 56f
1:36 18 25 mph 1000.2mb 59f 56f
1:24 20 26 mph 1000.1mb 59f 56f
1:18 20 25 mph 1000mb 59f 55f
1:12 21 28 mph 1000.1mb 59f 55f
1:06 20 26 mph 1000.2mb 59f 55f
1:00 18 25 mph 1000.4mb 59f 55f
12:54 17 24 mph 1000.5mb 59f 55f
12:48 21 26 mph 1000.5mb 59f 55f
12:42 17 23 mph 1000.6mb 59f 55f
12:36 22 25 mph 1000.7mb 59f 55f
12:30 21 26 mph 1000.7mb 59f 55f
12:24 21 26 mph 1000.9mb 59f 55f
12:18 20 24 mph 1001mb 59f 55f
12:12 23 26 mph 1001.2mb 59f 55f
12:06 23 29 mph 1001.3mb 59f 55f
12:00 23 30 mph 1001.4mb 59f 55f
11:54 22 30 mph 1001.5mb 59f 55f
11:48 24 30 mph 1001.4mb 59f 55f
11:42 24 29 mph 1001.5mb 59f 55f
11:36 23 28 mph 1001.5mb 59f 55f
11:30 22 26 mph 1001.6mb 59f 55f
11:24 24 29 mph 1001.6mb 59f 55f
11:18 21 26 mph 1001.6mb 59f 55f
11:12 22 29 mph 1001.6mb 59f 55f
11:06 23 26 mph 1001.5mb 59f 55f
11:00 22 26 mph 1001.5mb 59f 56f
10:54 23 28 mph 1001.5mb 59f 55f
10:48 20 29 mph 1001.4mb 59f 56f
10:42 22 28 mph 1001.4mb 59f 55f
10:36 22 28 mph 1001.4mb 59f 55f
10:30 23 30 mph 1001.5mb 59f 55f
10:24 22 28 mph 1001.5mb 59f 55f
10:18 24 29 mph 1001.5mb 59f 55f
10:12 23 26 mph 1001.5mb 59f 55f
10:06 22 29 mph 1001.6mb 59f 55f
10:00 24 32 mph 1001.7mb 59f 55f
9:54 26 30 mph 1001.7mb 59f 55f
9:48 22 31 mph 1001.7mb 59f 54f
9:42 23 30 mph 1001.7mb 59f 54f
9:36 22 33 mph 1001.8mb 59f 54f
9:30 24 31 mph 1001.7mb 59f 54f
9:24 23 31 mph 1001.8mb 59f 54f
9:18 23 30 mph 1001.7mb 59f 54f
9:12 25 31 mph 1001.7mb 59f 54f
9:06 24 29 mph 1001.6mb 59f 54f
9:00 23 28 mph 1001.5mb 59f 54f
8:54 21 31 mph 1001.5mb 59f 54f
8:48 24 30 mph 1001.3mb 59f 54f
8:42 22 24 mph 1001.5mb 60f 54f
8:30 23 28 mph 1001.4mb 60f 54f
8:24 22 30 mph 1001.5mb 60f 54f
8:18 23 32 mph 1001.5mb 60f 55f
8:12 23 29 mph 1001.4mb 60f 54f
8:06 25 30 mph 1001.3mb 60f 54f
8:00 22 29 mph 1001.4mb 60f 54f
7:54 22 29 mph 1001.5mb 60f 55f
7:48 20 25 mph 1001.4mb 60f 55f
7:42 22 26 mph 1001.3mb 60f 55f
7:36 22 29 mph 1001.2mb 60f 55f
7:30 24 31 mph 1001.1mb 60f 55f
7:24 23 33 mph 1000.9mb 60f 55f
7:18 23 30 mph 1000.9mb 60f 55f
7:12 24 29 mph 1000.7mb 60f 55f
7:06 22 32 mph 1000.7mb 60f 55f
7:00 23 31 mph 1000.6mb 60f 55f
6:54 22 29 mph 1000.6mb 60f 55f
6:48 23 34 mph 1000.7mb 60f 55f
6:42 24 34 mph 1000.9mb 60f 55f
6:36 26 32 mph 1000.8mb 60f 55f
6:30 28 36 mph 1000.7mb 60f 55f
6:24 23 31 mph 1001.2mb 60f 55f
6:18 28 31 mph 1001.5mb 60f 54f
6:12 24 34 mph 1001.3mb 60f 54f
6:06 25 33 mph 1001mb 60f 54f
6:00 25 37 mph 1000.6mb 60f 53f
5:54 28 39 mph 1000.2mb 60f 53f
5:48 25 38 mph 999.8mb 60f 53f
5:42 26 33 mph 1000.5mb 60f 53f
5:36 23 30 mph 1001.2mb 60f 53f
5:30 23 30 mph 1001.9mb 60f 52f
5:24 23 31 mph 1001.8mb 60f 52f
5:18 23 28 mph 1001.5mb 60f 52f
5:12 24 30 mph 1001.4mb 60f 51f
5:06 23 28 mph 1002mb 60f 52f
5:00 22 30 mph 1002.3mb 60f 52f
4:54 23 31 mph 1002.2mb 60f 52f
4:48 26 32 mph 1002.4mb 60f 53f
4:42 26 31 mph 1002.3mb 60f 53f
4:36 21 26 mph 1002.6mb 60f 53f
4:30 21 25 mph 1002.7mb 60f 53f
4:24 23 37 mph 1002.6mb 60f 53f
4:18 26 32 mph 1002.5mb 60f 53f
4:12 25 31 mph 1002.6mb 60f 53f
4:06 24 34 mph 1002.4mb 60f 53f
4:00 28 37 mph 1002.3mb 60f 53f
3:54 24 31 mph 1002.5mb 60f 53f
3:48 23 33 mph 1002.4mb 59f 53f
3:42 25 32 mph 1002.5mb 60f 53f
3:36 28 33 mph 1002.5mb 60f 53f
3:30 25 32 mph 1002.6mb 59f 53f
3:24 28 37 mph 1002.8mb 59f 54f
3:18 26 38 mph 1002.9mb 60f 54f
3:12 26 34 mph 1002.8mb 60f 54f
3:06 29 36 mph 1002.6mb 60f 54f
3:00 28 36 mph 1002.5mb 60f 54f
2:54 28 37 mph 1002.1mb 60f 54f
2:48 28 37 mph 1002.4mb 60f 54f
2:42 30 39 mph 1003mb 60f 54f
2:36 30 43 mph 1002.9mb 60f 54f
2:30 31 40 mph 1003.2mb 60f 54f
2:24 34 40 mph 1003.2mb 60f 54f
2:18 31 38 mph 1003.3mb 60f 54f
2:12 34 40 mph 1003.4mb 60f 54f
2:06 31 43 mph 1003.1mb 60f 54f
2:00 32 43 mph 1003mb 60f 54f
1:54 28 38 mph 1003.3mb 60f 54f
1:48 32 40 mph 1003.5mb 60f 54f
1:42 29 40 mph 1003.9mb 60f 54f
1:36 30 38 mph 1004.2mb 60f 54f
1:30 29 38 mph 1004.1mb 60f 54f
1:24 29 38 mph 1004.4mb 60f 54f
1:18 29 36 mph 1004.6mb 60f 54f
1:12 29 36 mph 1004.6mb 60f 54f
1:06 30 33 mph 1004.8mb 60f 54f
1:00 28 32 mph 1004.9mb 60f 53f
12:54 29 36 mph 1004.9mb 60f 54f
12:48 28 33 mph 1004.8mb 60f 53f
12:42 28 37 mph 1004.7mb 60f 54f
12:36 30 36 mph 1004.7mb 60f 54f
12:30 28 32 mph 1004.9mb 60f 54f
12:24 26 31 mph 1005mb 60f 54f
12:18 24 33 mph 1005.3mb 60f 54f
12:12 25 31 mph 1005mb 60f 54f
12:06 28 31 mph 1004.9mb 60f 54f
12:00 24 29 mph 1005.3mb 60f 54f
mer. 10/22 11:54 23 29 mph 1005.5mb 60f 54f
11:48 26 32 mph 1005.5mb 60f 54f
11:42 25 32 mph 1005.5mb 60f 54f
11:36 28 31 mph 1005.4mb 60f 54f
11:30 29 34 mph 1005.5mb 60f 54f
11:24 28 32 mph 1005.4mb 60f 54f
11:18 28 34 mph 1005.4mb 60f 55f
11:12 28 32 mph 1005.6mb 60f 55f
11:06 22 31 mph 1005.8mb 60f 55f
11:00 30 36 mph 1005.7mb 60f 55f
10:54 30 34 mph 1005.6mb 60f 55f
10:48 28 34 mph 1005.4mb 60f 55f
10:42 29 33 mph 1005.6mb 60f 54f
10:36 28 37 mph 1005.8mb 60f 54f
10:30 30 37 mph 1005.8mb 60f 55f
10:24 33 40 mph 1005.6mb 60f 55f
10:18 31 37 mph 1005.2mb 60f 55f
10:12 33 39 mph 1005.2mb 60f 55f
10:06 32 41 mph 1005.1mb 60f 55f
10:00 33 37 mph 1004.9mb 60f 55f
9:54 31 36 mph 1005.2mb 60f 55f
9:48 29 39 mph 1005.3mb 60f 55f
9:42 33 39 mph 1005.2mb 60f 55f
9:36 32 39 mph 1005.2mb 60f 56f
9:30 32 38 mph 1005.2mb 60f 56f
9:24 36 40 mph 1004.9mb 60f 57f
9:18 38 47 mph 1004.9mb 60f 57f
9:12 41 47 mph 1004.4mb 60f 56f
9:06 43 48 mph 1004.6mb 60f 56f
9:00 39 45 mph 1004.5mb 60f 56f
8:54 38 45 mph 1005.1mb 60f 56f
8:48 38 45 mph 1004.1mb 60f 55f
8:42 36 46 mph 1003.8mb 60f 55f
8:36 39 48 mph 1004.5mb 60f 56f
8:30 31 46 mph 1004.1mb 60f 56f
8:24 40 45 mph 1003.8mb 60f 56f
8:18 38 46 mph 1004.1mb 60f 56f
8:12 40 49 mph 1004.3mb 60f 57f
8:06 33 39 mph 1004.5mb 60f 56f
8:00 30 37 mph 1004.7mb 60f 56f
7:54 30 36 mph 1004.8mb 60f 55f
7:48 29 34 mph 1004.7mb 60f 55f
7:42 29 32 mph 1005.1mb 60f 54f
7:36 26 34 mph 1005.5mb 60f 54f
7:30 30 36 mph 1005.4mb 60f 54f
7:24 29 36 mph 1005.7mb 60f 54f
7:18 29 39 mph 1005.9mb 60f 54f
7:12 29 38 mph 1006.2mb 60f 54f
7:06 30 39 mph 1006.5mb 60f 54f
7:00 33 39 mph 1006.3mb 60f 54f
6:54 30 41 mph 1006.4mb 60f 54f
6:48 31 39 mph 1006.4mb 60f 54f
6:42 30 43 mph 1006.5mb 60f 54f
6:36 34 41 mph 1006.4mb 60f 54f
6:30 36 41 mph 1006.4mb 60f 53f
6:24 33 44 mph 1006.5mb 60f 53f
6:18 36 43 mph 1006.7mb 60f 54f
6:12 36 45 mph 1007.1mb 60f 53f
6:06 36 44 mph 1007.2mb 60f 53f
6:00 32 44 mph 1007.3mb 60f 53f
5:54 34 45 mph 1007.2mb 60f 53f
5:48 31 43 mph 1007.5mb 60f 53f
5:42 32 41 mph 1007.8mb 60f 54f
5:36 33 44 mph 1008.2mb 60f 54f
5:30 34 44 mph 1008.2mb 60f 53f
5:24 36 41 mph 1008.3mb 60f 54f
5:18 28 38 mph 1008.4mb 60f 53f
5:12 34 47 mph 1008.5mb 60f 53f
5:06 32 40 mph 1008.5mb 60f 53f
5:00 28 38 mph 1008.7mb 60f 53f
4:54 33 37 mph 1008.7mb 60f 53f
4:48 30 38 mph 1008.8mb 60f 53f
4:42 36 41 mph 1008.8mb 60f 53f
4:36 32 41 mph 1009mb 60f 53f
4:30 34 41 mph 1009.1mb 60f 53f
4:24 32 39 mph 1009.2mb 60f 53f
4:18 31 44 mph 1009.1mb 60f 53f
4:12 34 40 mph 1009.1mb 60f 53f
4:06 32 40 mph 1009.4mb 61f 53f
4:00 32 39 mph 1009.5mb 61f 53f
3:54 29 33 mph 1009.6mb 61f 53f
3:48 28 32 mph 1009.7mb 61f 53f
3:42 25 30 mph 1009.9mb 61f 54f
3:36 24 31 mph 1010.1mb 61f 54f
3:30 26 33 mph 1010.3mb 61f 54f
3:24 28 34 mph 1010.3mb 61f 54f
3:18 32 38 mph 1010.4mb 61f 55f
3:12 25 36 mph 1010.6mb 61f 55f
3:06 28 37 mph 1010.6mb 61f 56f
3:00 29 34 mph 1010.7mb 61f 55f
2:54 30 36 mph 1010.8mb 61f 55f
2:48 32 37 mph 1010.7mb 61f 55f
2:42 34 39 mph 1010.6mb 61f 55f
2:36 28 36 mph 1010.7mb 61f 55f
2:30 25 32 mph 1010.9mb 61f 55f
2:24 24 30 mph 1011mb 61f 56f
2:18 28 33 mph 1011mb 61f 55f
2:12 25 32 mph 1011mb 61f 56f
2:06 28 34 mph 1011mb 61f 56f
2:00 29 34 mph 1011mb 61f 56f
1:54 28 33 mph 1011mb 61f 56f
1:48 26 31 mph 1011mb 61f 56f
1:42 29 34 mph 1011.1mb 61f 56f
1:36 26 33 mph 1011.1mb 61f 56f
1:30 26 32 mph 1011.2mb 61f 56f
1:18 26 31 mph 1011.4mb 61f 56f
1:12 26 32 mph 1011.6mb 61f 56f
1:06 28 32 mph 1011.7mb 61f 56f
1:00 26 32 mph 1011.8mb 61f 56f
12:54 25 31 mph 1011.8mb 61f 56f
12:48 26 32 mph 1011.9mb 61f 56f
12:42 25 30 mph 1011.8mb 61f 56f
12:36 26 32 mph 1011.7mb 61f 56f
12:30 26 32 mph 1011.8mb 61f 56f
12:24 25 29 mph 1011.9mb 61f 56f
12:18 23 30 mph 1012.4mb 61f 56f
12:12 29 36 mph 1012.3mb 61f 56f
12:06 25 32 mph 1012.2mb 61f 56f
12:00 28 31 mph 1012.3mb 61f 56f
11:54 22 34 mph 1012.6mb 61f 56f
11:48 28 32 mph 1012.6mb 61f 56f
11:42 24 30 mph 1012.7mb 61f 57f
11:36 28 32 mph 1012.9mb 61f 57f
11:30 26 33 mph 1012.9mb 61f 57f
11:24 26 34 mph 1012.8mb 61f 57f
11:18 26 31 mph 1012.8mb 61f 57f
11:12 25 31 mph 1012.9mb 61f 57f
11:06 29 33 mph 1012.8mb 61f 57f
11:00 29 36 mph 1012.8mb 61f 57f
10:54 30 36 mph 1012.8mb 61f 57f
10:48 31 36 mph 1012.9mb 61f 57f
10:42 28 31 mph 1012.9mb 61f 57f
10:36 26 32 mph 1013mb 61f 58f
10:30 28 31 mph 1012.8mb 61f 58f
10:24 25 32 mph 1013mb 61f 58f
10:18 26 34 mph 1013mb 61f 58f
10:12 31 38 mph 1012.9mb 61f 58f
10:06 29 34 mph 1012.7mb 61f 58f
10:00 29 34 mph 1012.8mb 61f 58f
9:54 23 26 mph 1012.8mb 61f 58f
9:48 24 29 mph 1012.7mb 61f 58f
9:42 22 25 mph 1012.8mb 61f 57f
9:36 21 25 mph 1013mb 61f 57f
9:30 20 22 mph 1013.3mb 61f 57f
9:24 17 22 mph 1013.5mb 61f 56f
9:18 18 22 mph 1013.5mb 61f 56f
9:12 17 22 mph 1013.6mb 61f 56f
9:06 17 23 mph 1013.6mb 61f 56f
9:00 17 22 mph 1013.8mb 61f 56f
8:54 17 22 mph 1013.8mb 61f 56f
8:48 17 22 mph 1013.9mb 61f 55f
8:42 17 21 mph 1013.9mb 61f 55f
8:36 15 22 mph 1013.8mb 61f 55f
8:30 18 24 mph 1013.8mb 61f 55f
8:24 18 24 mph 1013.3mb 61f 55f
8:18 20 23 mph 1013.5mb 61f 55f
8:12 17 20 mph 1013.7mb 61f 55f
8:06 17 22 mph 1013.5mb 61f 54f
8:00 17 22 mph 1013.2mb 61f 54f
7:54 16 20 mph 1013.1mb 62f 54f
7:48 17 20 mph 1013.1mb 62f 54f
7:42 18 22 mph 1012.9mb 62f 54f
7:36 16 22 mph 1012.9mb 62f 54f
7:30 16 21 mph 1012.9mb 62f 54f
7:24 16 20 mph 1012.8mb 62f 54f
7:18 18 22 mph 1012.9mb 62f 53f
7:12 17 23 mph 1012.9mb 62f 54f
7:06 16 23 mph 1013mb 62f 53f